首页
METAR-TAF:

METAR-TAF

机场 :

Redwood Falls Municipal Airport

Redwood Falls, 明尼蘇達州, 美国

纬度: 44-32-50N, 经度: 095-04-56W, 海拔: 312米

当前天气观测

该预报发布于16分钟前的10:09 UTC
风速4节,风向西转西北
温度 16°C
湿度 88%
气压 1010 hPa
能見度: 4.8公里
阴天层高于1500英尺
轻雾

METAR: KRWF 261009Z AUTO 30004KT 3SM BR OVC015 16/14 A2983 RMK AO2 T01560144

时间: 05:25 (10:25 UTC)

预报

该预报发布于1小时和53分钟前的08:32 UTC
预报有效从26日的 09点(UTC)到 27日的 06点(UTC)
风速4节,风向西
能見度: 4.8公里
阴天层高于2000英尺
小阵雨, 轻雾
短暂存在
从 26日的 09点(UTC)到 26日的 13点(UTC)
能見度: 3.2公里
阴天层高于1000英尺
轻雾
从 26日的 1800点(UTC)
风速5节,风向西北
能見度: 10公里
阴天层高于1500英尺
几率 30%
从 26日的 18点(UTC)到 26日的 22点(UTC)
能見度: 4.8公里
散云层高于1500英尺
多云层高于2500英尺, 积雨云.
雷暴, 雨
从 26日的 2200点(UTC)
风速6节,风向西北
能見度: 10公里
多云层高于2400英尺

TAF: KRWF 260832Z 2609/2706 27004KT 3SM -SHRA BR OVC020 TEMPO 2609/2613 2SM BR OVC010 FM261800 32005KT P6SM OVC015 PROB30 2618/2622 3SM TSRA SCT015 BKN025CB FM262200 32006KT P6SM BKN024

超过4000个机场的气象观测和天气预报(METAR&TAF报告)。

可查询的气象台以黄色和红色小点在地图上表示。

将鼠标移到小点上方,可查看气象台名称。

然后点击查看天气观测和预报。

如需切换地图:点击带黑十字的绿色按钮放大地图;点击带横线的绿色按钮缩小地图;或者点击绿色箭头查看邻近地区的地图。


METAR-TAF: